createdAt,value
2023-02-19T00:01:46.878Z,10.75
2023-02-19T00:04:14.402Z,11.07
2023-02-19T00:06:42.584Z,10.10
2023-02-19T00:09:12.334Z,10.85
2023-02-19T00:11:39.556Z,5.45
2023-02-19T00:14:06.984Z,8.90
2023-02-19T00:16:38.710Z,10.90
2023-02-19T00:19:08.488Z,8.80
2023-02-19T00:21:35.757Z,8.25
2023-02-19T00:24:05.478Z,8.25
2023-02-19T00:26:32.556Z,10.50
2023-02-19T00:29:00.766Z,9.63
2023-02-19T00:31:33.449Z,7.28
2023-02-19T00:34:05.526Z,8.77
2023-02-19T00:36:36.292Z,8.32
2023-02-19T00:39:04.796Z,9.27
2023-02-19T00:41:32.388Z,9.67
2023-02-19T00:44:05.311Z,8.15
2023-02-19T00:46:44.183Z,6.85
2023-02-19T00:49:17.220Z,7.78
2023-02-19T00:51:44.608Z,7.15
2023-02-19T00:54:12.627Z,7.03
2023-02-19T00:56:40.347Z,6.78
2023-02-19T00:59:07.676Z,9.55
2023-02-19T01:01:35.151Z,9.98
2023-02-19T01:04:03.784Z,8.27
2023-02-19T01:06:32.681Z,8.27
2023-02-19T01:08:59.562Z,7.20
2023-02-19T01:11:27.384Z,6.40
2023-02-19T01:13:58.397Z,6.80
2023-02-19T01:16:25.768Z,6.97
2023-02-19T01:18:53.190Z,7.63
2023-02-19T01:21:23.064Z,6.78
2023-02-19T01:23:51.468Z,5.75
2023-02-19T01:26:21.760Z,6.65
2023-02-19T01:28:49.311Z,6.60
2023-02-19T01:31:20.059Z,4.27
2023-02-19T01:33:52.900Z,6.47
2023-02-19T01:36:20.366Z,5.78
2023-02-19T01:38:47.957Z,5.35
2023-02-19T01:41:18.005Z,5.75
2023-02-19T01:44:14.310Z,5.70
2023-02-19T01:46:42.733Z,5.13
2023-02-19T01:49:25.012Z,4.78
2023-02-19T01:52:04.530Z,4.35
2023-02-19T01:54:34.851Z,5.03
2023-02-19T01:57:07.979Z,5.00
2023-02-19T01:59:35.393Z,4.75
2023-02-19T02:02:02.762Z,4.90
2023-02-19T02:04:32.863Z,4.70
2023-02-19T02:07:02.287Z,4.80
2023-02-19T02:09:57.316Z,5.40
2023-02-19T02:12:24.568Z,5.80
2023-02-19T02:14:51.931Z,4.63
2023-02-19T02:17:43.727Z,4.40
2023-02-19T02:20:10.995Z,4.15
2023-02-19T02:22:39.834Z,3.93
2023-02-19T02:25:09.788Z,4.07
2023-02-19T02:27:39.486Z,3.75
2023-02-19T02:30:30.270Z,4.10
2023-02-19T02:33:25.430Z,3.13
2023-02-19T02:36:18.264Z,3.37
2023-02-19T02:38:47.354Z,3.40
2023-02-19T02:41:16.286Z,2.80
2023-02-19T02:43:43.597Z,3.30
2023-02-19T02:46:20.219Z,3.40
2023-02-19T02:48:54.019Z,3.37
2023-02-19T02:51:34.146Z,3.78
2023-02-19T02:54:35.194Z,4.43
2023-02-19T02:57:09.351Z,4.78
2023-02-19T02:59:42.793Z,3.45
2023-02-19T03:02:24.317Z,3.97
2023-02-19T03:05:13.708Z,4.50
2023-02-19T03:08:03.569Z,3.92
2023-02-19T03:10:38.933Z,3.75
2023-02-19T03:13:30.362Z,3.67
2023-02-19T03:16:26.920Z,3.90
2023-02-19T03:19:15.009Z,3.45
2023-02-19T03:21:45.267Z,4.65
2023-02-19T03:24:33.298Z,4.07
2023-02-19T03:27:03.859Z,3.83
2023-02-19T03:29:39.491Z,3.50
2023-02-19T03:32:23.953Z,4.40
2023-02-19T03:35:20.083Z,3.78
2023-02-19T03:37:56.999Z,4.97
2023-02-19T03:40:28.360Z,3.90
2023-02-19T03:43:24.584Z,3.67
2023-02-19T03:46:12.172Z,3.60
2023-02-19T03:48:57.196Z,3.78
2023-02-19T03:51:43.274Z,3.70
2023-02-19T03:54:37.335Z,3.33
2023-02-19T03:57:20.620Z,3.97
2023-02-19T04:00:00.186Z,4.28
2023-02-19T04:02:35.934Z,3.50
2023-02-19T04:05:18.471Z,4.38
2023-02-19T04:07:49.021Z,3.53
2023-02-19T04:10:20.616Z,2.70
2023-02-19T04:13:06.931Z,4.05
2023-02-19T04:15:34.456Z,2.97
2023-02-19T04:18:07.191Z,4.55
2023-02-19T04:20:39.915Z,4.22
2023-02-19T04:23:07.523Z,4.27
2023-02-19T04:25:36.014Z,4.22
2023-02-19T04:28:03.298Z,4.03
2023-02-19T04:30:30.960Z,3.90
2023-02-19T04:32:58.215Z,3.15
2023-02-19T04:35:25.144Z,4.40
2023-02-19T04:37:52.378Z,4.00
2023-02-19T04:40:19.261Z,3.80
2023-02-19T04:42:46.560Z,4.13
2023-02-19T04:45:13.793Z,4.13
2023-02-19T04:47:41.025Z,4.23
2023-02-19T04:50:08.031Z,4.18
2023-02-19T04:52:35.603Z,3.85
2023-02-19T04:55:03.137Z,3.97
2023-02-19T04:57:30.357Z,4.80
2023-02-19T04:59:57.904Z,4.20
2023-02-19T05:02:24.715Z,4.90
2023-02-19T05:04:51.930Z,4.05
2023-02-19T05:07:19.643Z,4.25
2023-02-19T05:09:46.889Z,4.25
2023-02-19T05:12:13.830Z,3.90
2023-02-19T05:14:41.048Z,3.67
2023-02-19T05:17:08.355Z,3.97
2023-02-19T05:19:35.719Z,3.53
2023-02-19T05:22:02.990Z,3.17
2023-02-19T05:24:31.474Z,4.23
2023-02-19T05:26:58.710Z,3.70
2023-02-19T05:29:25.886Z,3.55
2023-02-19T05:31:52.854Z,3.00
2023-02-19T05:34:20.167Z,3.20
2023-02-19T05:36:47.409Z,3.43
2023-02-19T05:39:14.612Z,3.13
2023-02-19T05:41:41.955Z,3.20
2023-02-19T05:44:10.784Z,3.63
2023-02-19T05:46:38.003Z,2.78
2023-02-19T05:49:04.984Z,3.57
2023-02-19T05:51:32.229Z,3.38
2023-02-19T05:53:59.483Z,2.60
2023-02-19T05:56:27.136Z,3.78
2023-02-19T05:58:56.127Z,3.30
2023-02-19T06:01:25.178Z,4.43
2023-02-19T06:03:54.053Z,4.38
2023-02-19T06:06:23.063Z,3.53
2023-02-19T06:08:51.078Z,3.33
2023-02-19T06:11:18.868Z,3.92
2023-02-19T06:13:46.174Z,3.53
2023-02-19T06:16:13.387Z,4.32
2023-02-19T06:18:41.292Z,3.67
2023-02-19T06:21:11.693Z,3.22
2023-02-19T06:23:39.750Z,3.60
2023-02-19T06:26:13.800Z,4.07
2023-02-19T06:28:43.209Z,3.63
2023-02-19T06:31:11.759Z,3.55
2023-02-19T06:33:40.544Z,4.07
2023-02-19T06:36:11.738Z,4.93
2023-02-19T06:38:39.168Z,4.30
2023-02-19T06:41:07.307Z,4.03
2023-02-19T06:43:34.973Z,4.78
2023-02-19T06:46:03.510Z,3.78
2023-02-19T06:48:31.920Z,3.60
2023-02-19T06:50:59.588Z,4.10
2023-02-19T06:53:26.528Z,6.30
2023-02-19T06:56:08.455Z,5.05
2023-02-19T06:58:35.457Z,4.80
2023-02-19T07:01:03.415Z,3.53
2023-02-19T07:03:30.711Z,4.70
2023-02-19T07:05:59.701Z,5.68
2023-02-19T07:08:29.306Z,5.03
2023-02-19T07:10:58.068Z,4.78
2023-02-19T07:13:26.933Z,4.85
2023-02-19T07:16:05.142Z,4.77
2023-02-19T07:18:32.398Z,4.53
2023-02-19T07:21:07.393Z,4.90
2023-02-19T07:23:34.673Z,4.55
2023-02-19T07:26:02.512Z,3.75
2023-02-19T07:28:29.861Z,5.17
2023-02-19T07:31:04.040Z,5.20
2023-02-19T07:33:31.769Z,4.18
2023-02-19T07:35:59.170Z,4.38
2023-02-19T07:38:26.727Z,4.95
2023-02-19T07:40:55.225Z,5.53
2023-02-19T07:43:22.935Z,5.18
2023-02-19T07:45:50.787Z,5.15
2023-02-19T07:48:17.775Z,4.90
2023-02-19T07:50:55.875Z,4.45
2023-02-19T07:53:23.985Z,3.80
2023-02-19T07:55:51.233Z,4.70
2023-02-19T07:58:18.473Z,4.60
2023-02-19T08:00:45.854Z,4.88
2023-02-19T08:03:13.366Z,5.43
2023-02-19T08:05:41.997Z,4.47
2023-02-19T08:08:14.393Z,4.22
2023-02-19T08:11:00.498Z,3.20
2023-02-19T08:13:30.208Z,4.95
2023-02-19T08:16:24.161Z,5.20
2023-02-19T08:18:51.192Z,4.97
2023-02-19T08:21:18.512Z,5.00
2023-02-19T08:23:46.495Z,5.88
2023-02-19T08:26:13.949Z,5.50
2023-02-19T08:28:41.428Z,4.90
2023-02-19T08:31:11.126Z,4.50
2023-02-19T08:33:38.926Z,4.50
2023-02-19T08:36:08.120Z,3.75
2023-02-19T08:38:35.912Z,4.70
2023-02-19T08:41:07.413Z,5.03
2023-02-19T08:43:34.915Z,4.80
2023-02-19T08:46:02.212Z,5.63
2023-02-19T08:48:29.153Z,4.68
2023-02-19T08:51:08.542Z,5.45
2023-02-19T08:53:37.447Z,4.95
2023-02-19T08:56:11.628Z,5.23
2023-02-19T08:58:38.852Z,4.55
2023-02-19T09:01:11.457Z,5.68
2023-02-19T09:03:39.291Z,4.60
2023-02-19T09:06:06.677Z,5.28
2023-02-19T09:08:33.994Z,6.27
2023-02-19T09:11:04.925Z,7.82
2023-02-19T09:13:32.304Z,5.45
2023-02-19T09:15:59.647Z,6.38
2023-02-19T09:18:27.033Z,7.55
2023-02-19T09:20:54.331Z,5.80
2023-02-19T09:23:21.575Z,6.40
2023-02-19T09:25:48.840Z,6.93
2023-02-19T09:28:16.866Z,5.25
2023-02-19T09:30:44.150Z,5.35
2023-02-19T09:33:11.656Z,6.17
2023-02-19T09:35:40.593Z,10.38
2023-02-19T09:38:10.412Z,9.80
2023-02-19T09:40:39.081Z,22.35
2023-02-19T09:43:15.138Z,7.95
2023-02-19T09:45:42.713Z,14.00
2023-02-19T09:48:11.191Z,6.13
2023-02-19T09:50:41.157Z,4.47
2023-02-19T09:53:41.840Z,3.50
2023-02-19T09:56:09.258Z,4.13
2023-02-19T09:58:48.795Z,4.20
2023-02-19T10:01:16.471Z,4.15
2023-02-19T10:03:48.586Z,4.45
2023-02-19T10:06:23.722Z,3.42
2023-02-19T10:08:53.139Z,4.13
2023-02-19T10:11:20.548Z,2.90
2023-02-19T10:14:09.425Z,4.00
2023-02-19T10:16:40.753Z,3.50
2023-02-19T10:19:15.475Z,3.28
2023-02-19T10:21:43.628Z,3.03
2023-02-19T10:24:20.948Z,3.23
2023-02-19T10:26:49.488Z,3.38
2023-02-19T10:29:16.665Z,3.72
2023-02-19T10:31:44.062Z,3.63
2023-02-19T10:34:22.222Z,4.25
2023-02-19T10:36:51.050Z,4.13
2023-02-19T10:39:29.938Z,4.00
2023-02-19T10:41:58.689Z,3.90
2023-02-19T10:44:32.062Z,4.00
2023-02-19T10:47:01.025Z,5.10
2023-02-19T10:49:34.212Z,4.90
2023-02-19T10:52:21.852Z,8.75
2023-02-19T10:55:16.500Z,4.38
2023-02-19T10:57:43.815Z,11.45
2023-02-19T11:00:17.103Z,11.13
2023-02-19T11:02:44.820Z,11.87
2023-02-19T11:05:12.134Z,3.47
2023-02-19T11:07:46.961Z,5.13
2023-02-19T11:10:21.863Z,5.35
2023-02-19T11:12:50.513Z,5.22
2023-02-19T11:15:35.161Z,6.27
2023-02-19T11:18:08.786Z,8.07
2023-02-19T11:20:36.266Z,9.00
2023-02-19T11:23:28.308Z,6.93
2023-02-19T11:25:58.990Z,7.00
2023-02-19T11:28:37.955Z,3.47
2023-02-19T11:31:19.935Z,2.45
2023-02-19T11:33:56.088Z,2.60
2023-02-19T11:36:31.831Z,2.63
2023-02-19T11:39:03.153Z,3.33
2023-02-19T11:41:30.419Z,3.80
2023-02-19T11:44:25.965Z,3.70
2023-02-19T11:47:13.929Z,3.58
2023-02-19T11:50:02.530Z,3.55
2023-02-19T11:52:44.221Z,4.15
2023-02-19T11:55:37.780Z,3.67
2023-02-19T11:58:42.754Z,3.38
2023-02-19T12:01:46.954Z,5.80
2023-02-19T12:04:56.683Z,4.00
2023-02-19T12:07:44.402Z,3.72
2023-02-19T12:10:49.956Z,3.60
2023-02-19T12:13:45.381Z,3.55
2023-02-19T12:16:28.014Z,3.85
2023-02-19T12:19:07.035Z,3.58
2023-02-19T12:21:54.361Z,3.83
2023-02-19T12:24:24.165Z,3.80
2023-02-19T12:27:13.043Z,2.92
2023-02-19T12:29:54.819Z,3.28
2023-02-19T12:32:51.237Z,4.93
2023-02-19T12:35:48.839Z,3.75
2023-02-19T12:38:36.282Z,3.93
2023-02-19T12:41:25.094Z,5.85
2023-02-19T12:44:01.693Z,3.22
2023-02-19T12:46:33.786Z,2.70
2023-02-19T12:49:28.489Z,3.22
2023-02-19T12:52:09.352Z,3.43
2023-02-19T12:54:41.912Z,3.40
2023-02-19T12:57:25.868Z,3.40
2023-02-19T13:00:00.175Z,3.00
2023-02-19T13:02:35.553Z,3.25
2023-02-19T13:05:05.034Z,3.70
2023-02-19T13:08:04.633Z,3.80
2023-02-19T13:10:41.323Z,3.42
2023-02-19T13:13:19.257Z,3.05
2023-02-19T13:15:50.486Z,3.92
2023-02-19T13:18:27.979Z,3.20
2023-02-19T13:20:56.330Z,4.28
2023-02-19T13:23:50.392Z,2.78
2023-02-19T13:26:42.163Z,2.30
2023-02-19T13:29:09.516Z,2.38
2023-02-19T13:31:45.559Z,2.20
2023-02-19T13:34:22.453Z,4.10
2023-02-19T13:36:49.960Z,2.90
2023-02-19T13:39:19.551Z,2.70
2023-02-19T13:41:59.127Z,3.22
2023-02-19T13:44:29.398Z,3.47
2023-02-19T13:46:57.053Z,3.03
2023-02-19T13:49:24.379Z,2.72
2023-02-19T13:51:55.886Z,3.00
2023-02-19T13:54:28.888Z,5.82
2023-02-19T13:57:23.840Z,5.90
2023-02-19T13:59:51.985Z,3.13
2023-02-19T14:02:21.921Z,2.63
2023-02-19T14:04:52.273Z,3.03
2023-02-19T14:07:19.604Z,2.63
2023-02-19T14:09:47.196Z,3.13
2023-02-19T14:12:15.875Z,3.00
2023-02-19T14:14:48.030Z,3.60
2023-02-19T14:17:35.940Z,2.50
2023-02-19T14:20:04.422Z,3.55
2023-02-19T14:22:52.892Z,3.93
2023-02-19T14:25:27.002Z,11.35
2023-02-19T14:27:57.472Z,5.45
2023-02-19T14:30:25.092Z,2.80
2023-02-19T14:33:02.708Z,3.40
2023-02-19T14:35:40.608Z,3.40
2023-02-19T14:38:21.424Z,2.55
2023-02-19T14:40:50.115Z,3.17
2023-02-19T14:43:20.048Z,3.58
2023-02-19T14:45:57.174Z,2.40
2023-02-19T14:48:30.814Z,2.70
2023-02-19T14:51:04.680Z,2.35
2023-02-19T14:53:36.477Z,3.75
2023-02-19T14:56:04.255Z,2.60
2023-02-19T14:58:32.812Z,2.47
2023-02-19T15:01:00.435Z,2.73
2023-02-19T15:03:37.082Z,2.80
2023-02-19T15:06:08.633Z,3.78
2023-02-19T15:08:45.213Z,3.35
2023-02-19T15:11:18.627Z,5.40
2023-02-19T15:13:58.966Z,4.70
2023-02-19T15:16:28.745Z,3.13
2023-02-19T15:18:58.350Z,4.00
2023-02-19T15:21:28.680Z,4.80
2023-02-19T15:23:58.285Z,4.00
2023-02-19T15:26:36.971Z,4.10
2023-02-19T15:29:17.127Z,7.07
2023-02-19T15:31:58.331Z,10.57
2023-02-19T15:34:27.744Z,4.60
2023-02-19T15:37:06.410Z,5.55
2023-02-19T15:39:39.734Z,4.60
2023-02-19T15:42:09.372Z,4.55
2023-02-19T15:44:36.657Z,5.72
2023-02-19T15:47:35.532Z,3.78
2023-02-19T15:50:17.365Z,8.95
2023-02-19T15:52:51.432Z,7.50
2023-02-19T15:55:48.979Z,6.60
2023-02-19T15:58:27.936Z,5.00
2023-02-19T16:00:59.278Z,3.88
2023-02-19T16:03:28.022Z,4.38
2023-02-19T16:06:15.626Z,6.93
2023-02-19T16:09:02.090Z,4.60
2023-02-19T16:11:36.923Z,4.45
2023-02-19T16:14:35.834Z,4.78
2023-02-19T16:17:12.063Z,6.88
2023-02-19T16:20:03.178Z,4.47
2023-02-19T16:22:33.947Z,6.10
2023-02-19T16:25:06.563Z,6.50
2023-02-19T16:27:34.093Z,4.78
2023-02-19T16:30:10.245Z,7.07
2023-02-19T16:32:37.823Z,4.90
2023-02-19T16:35:05.168Z,3.50
2023-02-19T16:37:56.472Z,3.17
2023-02-19T16:40:54.323Z,3.75
2023-02-19T16:43:30.971Z,3.80
2023-02-19T16:45:59.020Z,5.13
2023-02-19T16:48:26.626Z,6.50
2023-02-19T16:50:53.869Z,7.25
2023-02-19T16:53:24.796Z,4.43
2023-02-19T16:55:52.578Z,4.75
2023-02-19T16:58:19.631Z,4.93
2023-02-19T17:00:47.018Z,5.43
2023-02-19T17:03:20.978Z,5.40
2023-02-19T17:05:48.414Z,4.25
2023-02-19T17:08:31.660Z,3.50
2023-02-19T17:10:59.263Z,10.17
2023-02-19T17:13:26.652Z,3.30
2023-02-19T17:15:54.278Z,3.72
2023-02-19T17:18:21.526Z,3.15
2023-02-19T17:20:59.708Z,4.35
2023-02-19T17:23:26.945Z,3.60
2023-02-19T17:25:54.306Z,4.90
2023-02-19T17:28:21.514Z,6.60
2023-02-19T17:30:48.768Z,5.07
2023-02-19T17:33:15.965Z,5.38
2023-02-19T17:35:44.815Z,5.33
2023-02-19T17:38:13.773Z,3.90
2023-02-19T17:40:41.368Z,3.75
2023-02-19T17:43:08.760Z,4.20
2023-02-19T17:45:36.930Z,8.50
2023-02-19T17:48:04.268Z,7.03
2023-02-19T17:50:32.578Z,4.78
2023-02-19T17:53:00.022Z,4.53
2023-02-19T17:55:26.967Z,2.60
2023-02-19T17:57:54.294Z,3.40
2023-02-19T18:00:24.699Z,3.50
2023-02-19T18:02:52.999Z,3.25
2023-02-19T18:05:20.607Z,3.63
2023-02-19T18:07:48.178Z,4.13
2023-02-19T18:10:17.744Z,6.07
2023-02-19T18:12:45.064Z,6.23
2023-02-19T18:15:18.212Z,5.13
2023-02-19T18:17:45.587Z,4.22
2023-02-19T18:20:14.422Z,4.63
2023-02-19T18:22:42.520Z,4.30
2023-02-19T18:25:10.258Z,3.20
2023-02-19T18:27:37.787Z,2.63
2023-02-19T18:30:05.700Z,2.92
2023-02-19T18:32:32.976Z,3.40
2023-02-19T18:35:00.560Z,2.97
2023-02-19T18:37:30.120Z,4.03
2023-02-19T18:39:58.789Z,3.03
2023-02-19T18:42:26.361Z,3.10
2023-02-19T18:44:53.621Z,3.35
2023-02-19T18:47:22.034Z,3.28
2023-02-19T18:49:50.160Z,2.77
2023-02-19T18:52:21.300Z,3.70
2023-02-19T18:54:48.982Z,2.72
2023-02-19T18:57:16.415Z,2.75
2023-02-19T18:59:43.691Z,3.00
2023-02-19T19:02:11.708Z,4.43
2023-02-19T19:04:39.300Z,2.50
2023-02-19T19:07:07.342Z,2.20
2023-02-19T19:09:34.556Z,2.60
2023-02-19T19:12:02.269Z,3.28
2023-02-19T19:14:29.517Z,3.00
2023-02-19T19:16:56.889Z,2.85
2023-02-19T19:19:24.416Z,4.28
2023-02-19T19:21:55.572Z,3.47
2023-02-19T19:24:24.107Z,3.75
2023-02-19T19:26:52.053Z,2.47
2023-02-19T19:29:22.105Z,3.13
2023-02-19T19:31:49.702Z,4.55
2023-02-19T19:34:17.301Z,3.35
2023-02-19T19:36:45.183Z,3.47
2023-02-19T19:39:12.476Z,3.70
2023-02-19T19:41:39.923Z,3.85
2023-02-19T19:44:08.321Z,3.22
2023-02-19T19:46:35.683Z,3.80
2023-02-19T19:49:02.977Z,4.85
2023-02-19T19:51:34.099Z,3.67
2023-02-19T19:54:03.149Z,3.17
2023-02-19T19:56:30.794Z,4.60
2023-02-19T19:58:57.995Z,12.00
2023-02-19T20:01:25.278Z,4.85
2023-02-19T20:03:52.673Z,6.33
2023-02-19T20:06:28.691Z,7.05
2023-02-19T20:08:56.287Z,6.55
2023-02-19T20:11:23.750Z,5.00
2023-02-19T20:13:50.957Z,7.88
2023-02-19T20:16:24.146Z,6.97
2023-02-19T20:18:51.458Z,9.60
2023-02-19T20:21:18.776Z,9.57
2023-02-19T20:23:46.594Z,4.85
2023-02-19T20:26:13.853Z,4.95
2023-02-19T20:28:45.119Z,6.17
2023-02-19T20:31:12.754Z,5.00
2023-02-19T20:33:40.182Z,6.43
2023-02-19T20:36:07.902Z,4.38
2023-02-19T20:38:36.588Z,5.65
2023-02-19T20:41:04.082Z,5.50
2023-02-19T20:43:31.558Z,5.15
2023-02-19T20:45:59.437Z,5.13
2023-02-19T20:48:26.735Z,5.63
2023-02-19T20:50:59.468Z,5.70
2023-02-19T20:53:27.415Z,6.20
2023-02-19T20:55:55.390Z,5.13
2023-02-19T20:58:23.261Z,9.13
2023-02-19T21:00:53.341Z,9.93
2023-02-19T21:03:20.762Z,12.45
2023-02-19T21:05:48.288Z,12.03
2023-02-19T21:08:17.295Z,5.97
2023-02-19T21:10:47.295Z,5.57
2023-02-19T21:13:14.740Z,5.68
2023-02-19T21:15:42.175Z,5.93
2023-02-19T21:18:09.478Z,5.07
2023-02-19T21:20:36.761Z,5.55
2023-02-19T21:23:04.218Z,5.80
2023-02-19T21:25:33.116Z,6.90
2023-02-19T21:28:00.471Z,6.20
2023-02-19T21:30:27.815Z,6.20
2023-02-19T21:32:54.661Z,8.35
2023-02-19T21:35:21.941Z,6.60
2023-02-19T21:37:49.205Z,5.75
2023-02-19T21:40:16.497Z,5.78
2023-02-19T21:42:44.602Z,6.07
2023-02-19T21:45:11.965Z,8.55
2023-02-19T21:47:39.263Z,7.38
2023-02-19T21:50:06.849Z,6.03
2023-02-19T21:52:34.129Z,6.68
2023-02-19T21:55:01.353Z,5.60
2023-02-19T21:57:28.221Z,6.75
2023-02-19T21:59:55.511Z,6.40
2023-02-19T22:02:22.823Z,5.78
2023-02-19T22:04:54.165Z,5.20
2023-02-19T22:07:22.170Z,5.23
2023-02-19T22:09:50.086Z,5.40
2023-02-19T22:12:18.516Z,4.55
2023-02-19T22:14:45.620Z,4.75
2023-02-19T22:17:13.352Z,4.75
2023-02-19T22:19:40.548Z,4.50
2023-02-19T22:22:07.770Z,4.97
2023-02-19T22:24:35.037Z,5.32
2023-02-19T22:27:02.115Z,5.50
2023-02-19T22:29:29.359Z,5.22
2023-02-19T22:31:56.671Z,4.77
2023-02-19T22:34:23.859Z,4.75
2023-02-19T22:36:51.088Z,5.30
2023-02-19T22:39:22.315Z,3.53
2023-02-19T22:41:49.628Z,5.88
2023-02-19T22:44:17.105Z,5.53
2023-02-19T22:46:54.939Z,5.80
2023-02-19T22:49:23.082Z,5.28
2023-02-19T22:51:52.720Z,6.68
2023-02-19T22:54:25.046Z,5.82
2023-02-19T22:56:53.126Z,6.43
2023-02-19T22:59:20.364Z,6.47
2023-02-19T23:01:47.770Z,5.30
2023-02-19T23:04:15.284Z,7.13
2023-02-19T23:06:45.241Z,7.18
2023-02-19T23:09:27.161Z,6.90
2023-02-19T23:12:05.578Z,6.28
2023-02-19T23:14:32.472Z,7.10
2023-02-19T23:16:59.794Z,6.57
2023-02-19T23:19:27.298Z,6.28
2023-02-19T23:21:54.780Z,6.93
2023-02-19T23:24:22.018Z,7.00
2023-02-19T23:26:51.989Z,6.72
2023-02-19T23:29:25.419Z,7.00
2023-02-19T23:31:52.963Z,6.68
2023-02-19T23:34:20.287Z,6.80
2023-02-19T23:36:49.700Z,6.68
2023-02-19T23:39:19.370Z,7.10
2023-02-19T23:41:51.972Z,6.60
2023-02-19T23:44:20.294Z,7.45
2023-02-19T23:46:47.546Z,6.77
2023-02-19T23:49:14.872Z,6.93
2023-02-19T23:51:42.219Z,8.10
2023-02-19T23:54:09.458Z,6.15
2023-02-19T23:56:36.746Z,7.22
2023-02-19T23:59:03.994Z,6.93
